createdAt,value
2018-02-11T00:00:02.459Z,1.52
2018-02-11T00:01:02.452Z,1.53
2018-02-11T00:02:02.446Z,1.50
2018-02-11T00:03:02.443Z,1.57
2018-02-11T00:04:02.436Z,1.46
2018-02-11T00:05:02.429Z,1.43
2018-02-11T00:06:02.421Z,1.52
2018-02-11T00:07:02.410Z,1.57
2018-02-11T00:08:02.406Z,1.57
2018-02-11T00:09:02.398Z,1.49
2018-02-11T00:10:02.391Z,1.53
2018-02-11T00:11:02.384Z,1.67
2018-02-11T00:12:02.368Z,1.67
2018-02-11T00:13:02.361Z,1.70
2018-02-11T00:14:02.354Z,1.67
2018-02-11T00:15:02.354Z,1.67
2018-02-11T00:16:02.339Z,1.61
2018-02-11T00:17:02.337Z,1.61
2018-02-11T00:18:02.323Z,1.67
2018-02-11T00:19:02.314Z,1.60
2018-02-11T00:20:02.315Z,1.57
2018-02-11T00:21:02.301Z,1.75
2018-02-11T00:22:02.293Z,1.75
2018-02-11T00:23:02.286Z,1.75
2018-02-11T00:24:02.287Z,1.70
2018-02-11T00:25:02.270Z,1.78
2018-02-11T00:26:02.270Z,1.76
2018-02-11T00:27:02.262Z,1.75
2018-02-11T00:28:02.247Z,1.82
2018-02-11T00:29:02.240Z,1.78
2018-02-11T00:30:02.242Z,1.82
2018-02-11T00:31:02.225Z,1.79
2018-02-11T00:32:02.225Z,1.79
2018-02-11T00:33:02.218Z,1.78
2018-02-11T00:34:02.203Z,1.76
2018-02-11T00:35:02.195Z,1.76
2018-02-11T00:36:02.188Z,1.78
2018-02-11T00:37:02.188Z,1.74
2018-02-11T00:38:02.181Z,1.76
2018-02-11T00:39:02.175Z,1.70
2018-02-11T00:40:02.166Z,1.74
2018-02-11T00:41:02.159Z,1.74
2018-02-11T00:42:02.152Z,1.74
2018-02-11T00:43:02.136Z,1.71
2018-02-11T00:44:02.130Z,1.84
2018-02-11T00:45:02.123Z,1.84
2018-02-11T00:46:02.117Z,1.75
2018-02-11T00:47:02.107Z,1.75
2018-02-11T00:48:02.107Z,1.67
2018-02-11T00:49:02.093Z,1.74
2018-02-11T00:50:02.093Z,1.79
2018-02-11T00:51:02.085Z,1.74
2018-02-11T00:52:02.072Z,1.79
2018-02-11T00:53:02.071Z,1.86
2018-02-11T00:54:02.056Z,1.81
2018-02-11T00:55:02.049Z,1.89
2018-02-11T00:56:02.042Z,1.82
2018-02-11T00:57:02.042Z,1.82
2018-02-11T00:58:02.038Z,1.85
2018-02-11T00:59:02.027Z,1.74
2018-02-11T01:00:02.020Z,1.82
2018-02-11T01:01:02.006Z,1.78
2018-02-11T01:02:01.999Z,1.78
2018-02-11T01:03:01.998Z,1.76
2018-02-11T01:04:01.991Z,1.71
2018-02-11T01:05:01.983Z,1.78
2018-02-11T01:06:01.977Z,1.68
2018-02-11T01:07:01.961Z,1.71
2018-02-11T01:08:01.964Z,1.85
2018-02-11T01:09:01.948Z,1.81
2018-02-11T01:10:01.948Z,1.79
2018-02-11T01:11:01.938Z,1.79
2018-02-11T01:12:01.932Z,1.79
2018-02-11T01:13:01.926Z,1.74
2018-02-11T01:14:01.919Z,1.64
2018-02-11T01:15:01.911Z,1.70
2018-02-11T01:16:01.897Z,1.60
2018-02-11T01:17:01.898Z,1.58
2018-02-11T01:18:01.890Z,1.58
2018-02-11T01:19:01.874Z,1.57
2018-02-11T01:20:01.867Z,1.53
2018-02-11T01:21:01.860Z,1.53
2018-02-11T01:22:01.861Z,1.46
2018-02-11T01:23:01.845Z,1.40
2018-02-11T01:24:01.838Z,1.39
2018-02-11T01:25:01.832Z,1.43
2018-02-11T01:26:01.833Z,1.40
2018-02-11T01:27:01.816Z,1.45
2018-02-11T01:28:01.808Z,1.42
2018-02-11T01:29:01.808Z,1.36
2018-02-11T01:30:01.801Z,1.34
2018-02-11T01:31:01.786Z,1.30
2018-02-11T01:32:01.778Z,1.38
2018-02-11T01:33:01.771Z,1.28
2018-02-11T01:34:01.771Z,1.34
2018-02-11T01:35:01.755Z,1.38
2018-02-11T01:36:01.756Z,1.28
2018-02-11T01:37:01.750Z,1.38
2018-02-11T01:38:01.741Z,1.32
2018-02-11T01:39:01.733Z,1.28
2018-02-11T01:40:01.720Z,1.28
2018-02-11T01:41:01.719Z,1.28
2018-02-11T01:42:01.711Z,1.28
2018-02-11T01:43:01.683Z,1.30
2018-02-11T01:44:01.676Z,1.25
2018-02-11T01:45:01.670Z,1.25
2018-02-11T01:46:01.662Z,1.25
2018-02-11T01:47:01.654Z,1.24
2018-02-11T01:48:01.647Z,1.30
2018-02-11T01:49:01.640Z,1.27
2018-02-11T01:50:01.632Z,1.31
2018-02-11T01:51:01.623Z,1.34
2018-02-11T01:52:01.617Z,1.31
2018-02-11T01:53:01.610Z,1.30
2018-02-11T01:54:01.602Z,1.31
2018-02-11T01:55:01.593Z,1.30
2018-02-11T01:56:01.587Z,1.31
2018-02-11T01:57:01.579Z,1.31
2018-02-11T01:58:01.573Z,1.31
2018-02-11T01:59:01.564Z,1.28
2018-02-11T02:00:01.556Z,1.27
2018-02-11T02:01:01.549Z,1.32
2018-02-11T02:02:01.540Z,1.32
2018-02-11T02:03:01.532Z,1.27
2018-02-11T02:04:01.530Z,1.25
2018-02-11T02:05:01.518Z,1.28
2018-02-11T02:06:01.512Z,1.22
2018-02-11T02:07:01.504Z,1.22
2018-02-11T02:08:01.496Z,1.25
2018-02-11T02:09:01.488Z,1.24
2018-02-11T02:10:01.481Z,1.30
2018-02-11T02:11:01.477Z,1.30
2018-02-11T02:12:01.465Z,1.31
2018-02-11T02:13:01.457Z,1.27
2018-02-11T02:14:01.451Z,1.34
2018-02-11T02:15:01.442Z,1.43
2018-02-11T02:16:01.435Z,1.38
2018-02-11T02:17:01.430Z,1.45
2018-02-11T02:18:01.420Z,1.38
2018-02-11T02:19:01.413Z,1.27
2018-02-11T02:20:01.406Z,1.38
2018-02-11T02:21:01.397Z,1.42
2018-02-11T02:22:01.391Z,1.38
2018-02-11T02:23:01.382Z,1.42
2018-02-11T02:24:01.374Z,1.38
2018-02-11T02:25:01.367Z,1.31
2018-02-11T02:26:01.362Z,1.46
2018-02-11T02:27:01.352Z,1.36
2018-02-11T02:28:01.345Z,1.30
2018-02-11T02:29:01.338Z,1.31
2018-02-11T02:30:01.330Z,1.27
2018-02-11T02:31:01.323Z,1.16
2018-02-11T02:32:01.315Z,1.14
2018-02-11T02:33:01.308Z,1.14
2018-02-11T02:34:01.301Z,1.20
2018-02-11T02:35:01.293Z,1.20
2018-02-11T02:36:01.285Z,1.16
2018-02-11T02:37:01.280Z,1.16
2018-02-11T02:38:01.271Z,1.10
2018-02-11T02:39:01.263Z,1.09
2018-02-11T02:40:01.257Z,1.03
2018-02-11T02:41:01.247Z,1.10
2018-02-11T02:42:01.240Z,1.13
2018-02-11T02:43:01.232Z,1.12
2018-02-11T02:44:01.226Z,1.16
2018-02-11T02:45:01.218Z,1.09
2018-02-11T02:46:01.210Z,1.14
2018-02-11T02:47:01.202Z,1.12
2018-02-11T02:48:01.193Z,1.21
2018-02-11T02:49:01.186Z,1.25
2018-02-11T02:50:01.180Z,1.24
2018-02-11T02:51:01.172Z,1.25
2018-02-11T02:52:01.167Z,1.18
2018-02-11T02:53:01.156Z,1.16
2018-02-11T02:54:01.150Z,1.07
2018-02-11T02:55:01.140Z,1.04
2018-02-11T02:56:01.133Z,1.20
2018-02-11T02:57:01.127Z,1.13
2018-02-11T02:58:01.120Z,1.24
2018-02-11T02:59:01.111Z,1.28
2018-02-11T03:00:01.103Z,1.40
2018-02-11T03:01:01.100Z,1.38
2018-02-11T03:02:01.088Z,1.42
2018-02-11T03:03:01.079Z,1.46
2018-02-11T03:04:01.073Z,1.40
2018-02-11T03:05:01.065Z,1.42
2018-02-11T03:06:01.059Z,1.40
2018-02-11T03:07:01.051Z,1.32
2018-02-11T03:08:01.043Z,1.30
2018-02-11T03:09:01.037Z,1.31
2018-02-11T03:10:01.029Z,1.31
2018-02-11T03:11:01.021Z,1.31
2018-02-11T03:12:01.015Z,1.32
2018-02-11T03:13:01.006Z,1.28
2018-02-11T03:14:00.998Z,1.36
2018-02-11T03:15:00.996Z,1.38
2018-02-11T03:16:00.983Z,1.36
2018-02-11T03:17:00.976Z,1.40
2018-02-11T03:18:00.969Z,1.45
2018-02-11T03:19:00.961Z,1.48
2018-02-11T03:20:00.955Z,1.38
2018-02-11T03:21:00.948Z,1.53
2018-02-11T03:22:00.940Z,1.40
2018-02-11T03:23:00.933Z,1.49
2018-02-11T03:24:00.925Z,1.45
2018-02-11T03:25:00.918Z,1.43
2018-02-11T03:26:00.911Z,1.36
2018-02-11T03:27:00.901Z,1.32
2018-02-11T03:28:00.894Z,1.36
2018-02-11T03:29:00.887Z,1.30
2018-02-11T03:30:00.881Z,1.30
2018-02-11T03:31:00.873Z,1.30
2018-02-11T03:32:00.865Z,1.30
2018-02-11T03:33:00.858Z,1.28
2018-02-11T03:34:00.852Z,1.27
2018-02-11T03:35:00.843Z,1.27
2018-02-11T03:36:00.836Z,1.32
2018-02-11T03:37:00.829Z,1.27
2018-02-11T03:38:00.822Z,1.34
2018-02-11T03:39:00.815Z,1.36
2018-02-11T03:40:00.807Z,1.36
2018-02-11T03:41:00.800Z,1.38
2018-02-11T03:42:00.793Z,1.25
2018-02-11T03:43:00.784Z,1.32
2018-02-11T03:44:00.776Z,1.31
2018-02-11T03:45:00.769Z,1.32
2018-02-11T03:46:00.764Z,1.25
2018-02-11T03:47:00.755Z,1.27
2018-02-11T03:48:00.748Z,1.30
2018-02-11T03:49:00.740Z,1.34
2018-02-11T03:50:00.733Z,1.31
2018-02-11T03:51:00.725Z,1.30
2018-02-11T03:52:00.718Z,1.31
2018-02-11T03:53:00.710Z,1.27
2018-02-11T03:54:00.704Z,1.27
2018-02-11T03:55:00.696Z,1.30
2018-02-11T03:56:00.687Z,1.32
2018-02-11T03:57:00.681Z,1.32
2018-02-11T03:58:00.678Z,1.30
2018-02-11T03:59:00.665Z,1.28
2018-02-11T04:00:00.659Z,1.25
2018-02-11T04:01:00.651Z,1.25
2018-02-11T04:02:00.643Z,1.18
2018-02-11T04:03:00.637Z,1.18
2018-02-11T04:04:00.628Z,1.16
2018-02-11T04:05:00.622Z,1.12
2018-02-11T04:06:00.615Z,1.13
2018-02-11T04:07:00.606Z,1.12
2018-02-11T04:08:00.598Z,0.99
2018-02-11T04:09:00.591Z,0.96
2018-02-11T04:10:00.584Z,1.00
2018-02-11T04:11:00.576Z,0.92
2018-02-11T04:12:00.567Z,0.89
2018-02-11T04:13:00.560Z,0.86
2018-02-11T04:14:00.553Z,0.88
2018-02-11T04:15:00.546Z,0.85
2018-02-11T04:16:00.537Z,0.89
2018-02-11T04:17:00.530Z,0.78
2018-02-11T04:18:00.523Z,0.73
2018-02-11T04:19:00.514Z,0.71
2018-02-11T04:20:00.506Z,0.71
2018-02-11T04:21:00.500Z,0.64
2018-02-11T04:22:00.492Z,0.68
2018-02-11T04:23:00.482Z,0.67
2018-02-11T04:24:00.476Z,0.61
2018-02-11T04:25:00.468Z,0.70
2018-02-11T04:26:00.461Z,0.74
2018-02-11T04:27:00.451Z,0.74
2018-02-11T04:28:00.444Z,0.71
2018-02-11T04:29:00.437Z,0.64
2018-02-11T04:30:00.431Z,0.68
2018-02-11T04:31:00.421Z,0.63
2018-02-11T04:32:00.412Z,0.67
2018-02-11T04:33:00.405Z,0.64
2018-02-11T04:34:00.401Z,0.63
2018-02-11T04:35:00.389Z,0.56
2018-02-11T04:36:00.384Z,0.59
2018-02-11T04:37:00.373Z,0.67
2018-02-11T04:38:00.366Z,0.66
2018-02-11T04:39:00.356Z,0.63
2018-02-11T04:40:00.350Z,0.66
2018-02-11T04:41:00.342Z,0.56
2018-02-11T04:42:00.334Z,0.63
2018-02-11T04:43:00.325Z,0.63
2018-02-11T04:44:00.318Z,0.61
2018-02-11T04:45:00.315Z,0.59
2018-02-11T04:46:00.304Z,0.49
2018-02-11T04:47:00.295Z,0.45
2018-02-11T04:48:00.286Z,0.42
2018-02-11T04:49:00.277Z,0.40
2018-02-11T04:50:00.271Z,0.44
2018-02-11T04:51:00.262Z,0.44
2018-02-11T04:52:00.254Z,0.47
2018-02-11T04:53:00.245Z,0.42
2018-02-11T04:54:00.238Z,0.40
2018-02-11T04:55:00.230Z,0.44
2018-02-11T04:56:00.223Z,0.29
2018-02-11T04:57:00.214Z,0.31
2018-02-11T04:58:00.210Z,0.27
2018-02-11T04:59:00.198Z,0.27
2018-02-11T05:00:00.189Z,0.24
2018-02-11T05:01:00.182Z,0.31
2018-02-11T05:02:00.175Z,0.39
2018-02-11T05:03:00.165Z,0.33
2018-02-11T05:04:00.158Z,0.42
2018-02-11T05:05:00.150Z,0.42
2018-02-11T05:06:00.143Z,0.33
2018-02-11T05:07:00.134Z,0.39
2018-02-11T05:08:00.126Z,0.39
2018-02-11T05:09:00.118Z,0.30
2018-02-11T05:10:00.111Z,0.27
2018-02-11T05:11:00.101Z,0.31
2018-02-11T05:12:00.093Z,0.27
2018-02-11T05:13:00.086Z,0.26
2018-02-11T05:14:00.079Z,0.27
2018-02-11T05:15:00.071Z,0.29
2018-02-11T05:16:00.062Z,0.26
2018-02-11T05:17:00.054Z,0.26
2018-02-11T05:18:00.046Z,0.15
2018-02-11T05:19:00.038Z,0.15
2018-02-11T05:20:00.033Z,0.08
2018-02-11T05:21:00.022Z,0.08
2018-02-11T05:22:00.016Z,0.05
2018-02-11T05:23:00.006Z,-0.03
2018-02-11T05:23:59.996Z,0.01
2018-02-11T05:24:59.996Z,0.00
2018-02-11T05:25:59.981Z,-0.09
2018-02-11T05:26:59.972Z,-0.02
2018-02-11T05:27:59.964Z,0.01
2018-02-11T05:28:59.957Z,0.06
2018-02-11T05:29:59.948Z,0.06
2018-02-11T05:30:59.940Z,0.11
2018-02-11T05:31:59.932Z,0.11
2018-02-11T05:32:59.923Z,0.11
2018-02-11T05:33:59.915Z,0.19
2018-02-11T05:34:59.907Z,0.16
2018-02-11T05:35:59.899Z,0.18
2018-02-11T05:36:59.892Z,0.19
2018-02-11T05:37:59.882Z,0.26
2018-02-11T05:38:59.873Z,0.19
2018-02-11T05:39:59.865Z,0.27
2018-02-11T05:40:59.858Z,0.15
2018-02-11T05:41:59.851Z,0.16
2018-02-11T05:42:59.842Z,0.09
2018-02-11T05:43:59.834Z,0.08
2018-02-11T05:44:59.826Z,0.08
2018-02-11T05:45:59.817Z,0.00
2018-02-11T05:46:59.810Z,-0.03
2018-02-11T05:47:59.801Z,-0.06
2018-02-11T05:48:59.792Z,0.00
2018-02-11T05:49:59.786Z,-0.07
2018-02-11T05:50:59.777Z,0.05
2018-02-11T05:51:59.768Z,0.02
2018-02-11T05:52:59.761Z,0.05
2018-02-11T05:53:59.753Z,0.05
2018-02-11T05:54:59.743Z,0.00
2018-02-11T05:55:59.736Z,0.00
2018-02-11T05:56:59.729Z,-0.13
2018-02-11T05:57:59.719Z,-0.10
2018-02-11T05:58:59.710Z,-0.13
2018-02-11T05:59:59.702Z,-0.10
2018-02-11T06:00:59.695Z,-0.27
2018-02-11T06:01:59.686Z,-0.23
2018-02-11T06:02:59.677Z,-0.26
2018-02-11T06:03:59.669Z,-0.21
2018-02-11T06:04:59.661Z,-0.21
2018-02-11T06:05:59.653Z,-0.20
2018-02-11T06:06:59.645Z,-0.24
2018-02-11T06:07:59.637Z,-0.24
2018-02-11T06:08:59.628Z,-0.27
2018-02-11T06:09:59.621Z,-0.26
2018-02-11T06:10:59.611Z,-0.27
2018-02-11T06:11:59.603Z,-0.20
2018-02-11T06:12:59.595Z,-0.30
2018-02-11T06:13:59.588Z,-0.24
2018-02-11T06:14:59.579Z,-0.35
2018-02-11T06:15:59.572Z,-0.44
2018-02-11T06:16:59.562Z,-0.42
2018-02-11T06:17:59.595Z,-0.45
2018-02-11T06:18:59.544Z,-0.49
2018-02-11T06:19:59.537Z,-0.48
2018-02-11T06:20:59.529Z,-0.49
2018-02-11T06:21:59.522Z,-0.49
2018-02-11T06:22:59.512Z,-0.45
2018-02-11T06:23:59.507Z,-0.45
2018-02-11T06:24:59.496Z,-0.45
2018-02-11T06:25:59.486Z,-0.45
2018-02-11T06:26:59.478Z,-0.44
2018-02-11T06:27:59.472Z,-0.28
2018-02-11T06:28:59.462Z,-0.24
2018-02-11T06:29:59.454Z,-0.21
2018-02-11T06:30:59.444Z,-0.30
2018-02-11T06:31:59.437Z,-0.42
2018-02-11T06:32:59.429Z,-0.42
2018-02-11T06:33:59.421Z,-0.36
2018-02-11T06:34:59.412Z,-0.45
2018-02-11T06:35:59.404Z,-0.45
2018-02-11T06:36:59.396Z,-0.42
2018-02-11T06:37:59.388Z,-0.46
2018-02-11T06:38:59.379Z,-0.45
2018-02-11T06:39:59.370Z,-0.46
2018-02-11T06:40:59.361Z,-0.53
2018-02-11T06:41:59.353Z,-0.51
2018-02-11T06:42:59.343Z,-0.49
2018-02-11T06:43:59.335Z,-0.48
2018-02-11T06:44:59.331Z,-0.54
2018-02-11T06:45:59.320Z,-0.42
2018-02-11T06:46:59.313Z,-0.41
2018-02-11T06:47:59.303Z,-0.46
2018-02-11T06:48:59.295Z,-0.45
2018-02-11T06:49:59.286Z,-0.49
2018-02-11T06:50:59.277Z,-0.51
2018-02-11T06:51:59.269Z,-0.44
2018-02-11T06:52:59.263Z,-0.27
2018-02-11T06:53:59.253Z,-0.09
2018-02-11T06:54:59.243Z,0.08
2018-02-11T06:55:59.236Z,0.15
2018-02-11T06:56:59.228Z,0.06
2018-02-11T06:57:59.219Z,0.05
2018-02-11T06:58:59.211Z,0.11
2018-02-11T06:59:59.203Z,0.06
2018-02-11T07:00:59.194Z,0.06
2018-02-11T07:01:59.187Z,0.06
2018-02-11T07:02:59.177Z,-0.02
2018-02-11T07:03:59.170Z,0.01
2018-02-11T07:04:59.162Z,0.15
2018-02-11T07:05:59.155Z,0.27
2018-02-11T07:06:59.145Z,0.37
2018-02-11T07:07:59.137Z,0.48
2018-02-11T07:08:59.132Z,0.42
2018-02-11T07:09:59.124Z,0.36
2018-02-11T07:10:59.115Z,0.44
2018-02-11T07:11:59.107Z,0.44
2018-02-11T07:12:59.099Z,0.63
2018-02-11T07:13:59.091Z,0.68
2018-02-11T07:14:59.084Z,0.82
2018-02-11T07:15:59.075Z,0.82
2018-02-11T07:16:59.069Z,0.89
2018-02-11T07:17:59.060Z,1.07
2018-02-11T07:18:59.052Z,1.22
2018-02-11T07:19:59.045Z,1.36
2018-02-11T07:20:59.038Z,1.28
2018-02-11T07:21:59.031Z,1.36
2018-02-11T07:22:59.023Z,1.60
2018-02-11T07:23:59.017Z,1.63
2018-02-11T07:24:59.010Z,1.68
2018-02-11T07:25:59.002Z,1.64
2018-02-11T07:26:58.993Z,1.46
2018-02-11T07:27:58.988Z,1.48
2018-02-11T07:28:58.979Z,1.50
2018-02-11T07:29:58.972Z,1.56
2018-02-11T07:30:58.965Z,1.71
2018-02-11T07:31:58.957Z,1.75
2018-02-11T07:32:58.952Z,1.68
2018-02-11T07:33:58.946Z,1.86
2018-02-11T07:34:58.938Z,1.95
2018-02-11T07:35:58.932Z,2.10
2018-02-11T07:36:58.925Z,2.30
2018-02-11T07:37:58.918Z,2.58
2018-02-11T07:38:58.911Z,2.94
2018-02-11T07:39:58.907Z,3.50
2018-02-11T07:40:58.900Z,4.02
2018-02-11T07:41:58.894Z,4.56
2018-02-11T07:42:58.888Z,5.00
2018-02-11T07:43:58.885Z,5.37
2018-02-11T07:44:58.880Z,5.43
2018-02-11T07:45:58.881Z,5.58
2018-02-11T07:46:58.871Z,5.59
2018-02-11T07:47:58.866Z,5.38
2018-02-11T07:48:58.864Z,5.52
2018-02-11T07:49:58.861Z,5.72
2018-02-11T07:50:58.855Z,5.91
2018-02-11T07:51:58.855Z,6.28
2018-02-11T07:52:58.853Z,6.71
2018-02-11T07:53:58.852Z,7.22
2018-02-11T07:54:58.848Z,7.44
2018-02-11T07:55:58.849Z,7.62
2018-02-11T07:56:58.849Z,7.66
2018-02-11T07:57:58.849Z,7.47
2018-02-11T07:58:58.847Z,7.15
2018-02-11T07:59:58.846Z,6.59
2018-02-11T08:00:58.847Z,6.22
2018-02-11T08:01:58.848Z,6.02
2018-02-11T08:02:58.848Z,5.70
2018-02-11T08:03:58.845Z,5.25
2018-02-11T08:04:58.847Z,5.10
2018-02-11T08:05:58.846Z,4.89
2018-02-11T08:06:58.844Z,4.66
2018-02-11T08:07:58.842Z,4.31
2018-02-11T08:08:58.842Z,4.00
2018-02-11T08:09:58.839Z,3.73
2018-02-11T08:10:58.837Z,3.74
2018-02-11T08:11:58.835Z,3.70
2018-02-11T08:12:58.834Z,3.55
2018-02-11T08:13:58.830Z,3.41
2018-02-11T08:14:58.826Z,3.34
2018-02-11T08:15:58.824Z,3.21
2018-02-11T08:16:58.868Z,3.30
2018-02-11T08:17:58.819Z,3.06
2018-02-11T08:18:58.862Z,3.01
2018-02-11T08:19:58.812Z,2.94
2018-02-11T08:20:58.806Z,2.94
2018-02-11T08:21:58.803Z,2.73
2018-02-11T08:22:58.798Z,2.70
2018-02-11T08:23:58.793Z,2.72
2018-02-11T08:24:58.791Z,2.65
2018-02-11T08:25:58.785Z,2.58
2018-02-11T08:26:58.781Z,2.30
2018-02-11T08:27:58.776Z,2.23
2018-02-11T08:28:58.771Z,2.34
2018-02-11T08:29:58.766Z,2.32
2018-02-11T08:30:58.759Z,2.39
2018-02-11T08:31:58.756Z,2.46
2018-02-11T08:32:58.750Z,2.43
2018-02-11T08:33:58.745Z,2.59
2018-02-11T08:34:58.745Z,2.68
2018-02-11T08:35:58.735Z,2.54
2018-02-11T08:36:58.729Z,2.62
2018-02-11T08:37:58.725Z,2.72
2018-02-11T08:38:58.719Z,2.72
2018-02-11T08:39:58.714Z,2.85
2018-02-11T08:40:58.709Z,3.13
2018-02-11T08:41:58.704Z,3.09
2018-02-11T08:42:58.699Z,3.03
2018-02-11T08:43:58.693Z,3.08
2018-02-11T08:44:58.688Z,2.95
2018-02-11T08:45:58.683Z,2.85
2018-02-11T08:46:58.677Z,2.73
2018-02-11T08:47:58.672Z,2.75
2018-02-11T08:48:58.667Z,2.75
2018-02-11T08:49:58.662Z,2.73
2018-02-11T08:50:58.655Z,2.54
2018-02-11T08:51:58.650Z,2.57
2018-02-11T08:52:58.645Z,2.69
2018-02-11T08:53:58.643Z,2.70
2018-02-11T08:54:58.634Z,2.68
2018-02-11T08:55:58.627Z,2.76
2018-02-11T08:56:58.623Z,2.68
2018-02-11T08:57:58.617Z,2.62
2018-02-11T08:58:58.614Z,2.68
2018-02-11T08:59:58.605Z,2.72
2018-02-11T09:00:58.601Z,2.75
2018-02-11T09:01:58.595Z,2.88
2018-02-11T09:02:58.589Z,3.09
2018-02-11T09:03:58.584Z,3.41
2018-02-11T09:04:58.579Z,3.71
2018-02-11T09:05:58.574Z,3.92
2018-02-11T09:06:58.568Z,4.13
2018-02-11T09:07:58.563Z,4.24
2018-02-11T09:08:58.558Z,4.21
2018-02-11T09:09:58.553Z,4.10
2018-02-11T09:10:58.546Z,3.99
2018-02-11T09:11:58.543Z,3.91
2018-02-11T09:12:58.537Z,3.82
2018-02-11T09:13:58.534Z,3.84
2018-02-11T09:14:58.527Z,3.82
2018-02-11T09:15:58.523Z,3.91
2018-02-11T09:16:58.519Z,3.89
2018-02-11T09:17:58.518Z,3.99
2018-02-11T09:18:58.509Z,4.02
2018-02-11T09:19:58.505Z,4.10
2018-02-11T09:20:58.500Z,3.95
2018-02-11T09:21:58.568Z,4.02
2018-02-11T09:22:58.490Z,3.71
2018-02-11T09:23:58.486Z,3.49
2018-02-11T09:24:58.481Z,3.58
2018-02-11T09:25:58.478Z,3.74
2018-02-11T09:26:58.472Z,4.21
2018-02-11T09:27:58.469Z,4.82
2018-02-11T09:28:58.466Z,5.22
2018-02-11T09:29:58.463Z,5.64
2018-02-11T09:30:58.456Z,5.61
2018-02-11T09:31:58.454Z,5.49
2018-02-11T09:32:58.452Z,5.40
2018-02-11T09:33:58.448Z,5.33
2018-02-11T09:34:58.451Z,5.46
2018-02-11T09:35:58.442Z,5.59
2018-02-11T09:36:58.438Z,5.62
2018-02-11T09:37:58.436Z,5.69
2018-02-11T09:38:58.432Z,5.55
2018-02-11T09:39:58.430Z,5.38
2018-02-11T09:40:58.427Z,5.19
2018-02-11T09:41:58.424Z,5.20
2018-02-11T09:42:58.422Z,5.07
2018-02-11T09:43:58.419Z,5.13
2018-02-11T09:44:58.462Z,4.82
2018-02-11T09:45:58.415Z,4.83
2018-02-11T09:46:58.411Z,4.76
2018-02-11T09:47:58.409Z,4.68
2018-02-11T09:48:58.406Z,4.61
2018-02-11T09:49:58.406Z,4.53
2018-02-11T09:50:58.447Z,4.60
2018-02-11T09:51:58.398Z,4.60
2018-02-11T09:52:58.395Z,4.82
2018-02-11T09:53:58.693Z,4.78
2018-02-11T09:54:58.389Z,4.74
2018-02-11T09:55:58.387Z,5.25
2018-02-11T09:56:58.384Z,5.47
2018-02-11T09:57:58.380Z,5.69
2018-02-11T09:58:58.377Z,5.95
2018-02-11T09:59:58.376Z,6.22
2018-02-11T10:00:58.374Z,6.13
2018-02-11T10:01:58.372Z,5.84
2018-02-11T10:02:58.367Z,5.61
2018-02-11T10:03:58.367Z,5.43
2018-02-11T10:04:58.365Z,5.51
2018-02-11T10:05:58.362Z,5.61
2018-02-11T10:06:58.361Z,5.18
2018-02-11T10:07:58.359Z,4.90
2018-02-11T10:08:58.356Z,4.79
2018-02-11T10:09:58.353Z,4.95
2018-02-11T10:10:58.351Z,4.90
2018-02-11T10:11:58.348Z,4.87
2018-02-11T10:12:58.346Z,4.82
2018-02-11T10:13:58.343Z,4.68
2018-02-11T10:14:58.339Z,4.75
2018-02-11T10:15:58.335Z,4.82
2018-02-11T10:16:58.333Z,4.94
2018-02-11T10:17:58.331Z,4.82
2018-02-11T10:18:58.326Z,4.79
2018-02-11T10:19:58.322Z,4.64
2018-02-11T10:20:58.319Z,4.63
2018-02-11T10:21:58.316Z,4.63
2018-02-11T10:22:58.313Z,4.53
2018-02-11T10:23:58.308Z,4.52
2018-02-11T10:24:58.306Z,4.52
2018-02-11T10:25:58.303Z,4.63
2018-02-11T10:26:58.298Z,4.74
2018-02-11T10:27:58.294Z,4.82
2018-02-11T10:28:58.291Z,4.83
2018-02-11T10:29:58.287Z,4.78
2018-02-11T10:30:58.283Z,4.79
2018-02-11T10:31:58.279Z,4.64
2018-02-11T10:32:58.276Z,4.57
2018-02-11T10:33:58.302Z,4.46
2018-02-11T10:34:58.267Z,4.32
2018-02-11T10:35:58.263Z,4.27
2018-02-11T10:36:58.259Z,4.34
2018-02-11T10:37:58.256Z,4.45
2018-02-11T10:38:58.251Z,4.57
2018-02-11T10:39:58.247Z,4.66
2018-02-11T10:40:58.243Z,4.68
2018-02-11T10:41:58.238Z,4.87
2018-02-11T10:42:58.234Z,4.90
2018-02-11T10:43:58.231Z,5.00
2018-02-11T10:44:58.225Z,4.95
2018-02-11T10:45:58.223Z,4.97
2018-02-11T10:46:58.218Z,4.90
2018-02-11T10:47:58.215Z,4.90
2018-02-11T10:48:58.209Z,4.92
2018-02-11T10:49:58.206Z,4.89
2018-02-11T10:50:58.201Z,4.89
2018-02-11T10:51:58.196Z,4.84
2018-02-11T10:52:58.192Z,4.97
2018-02-11T10:53:58.188Z,5.12
2018-02-11T10:54:58.185Z,5.31
2018-02-11T10:55:58.180Z,5.20
2018-02-11T10:56:58.176Z,5.10
2018-02-11T10:57:58.174Z,5.04
2018-02-11T10:58:58.168Z,5.05
2018-02-11T10:59:58.194Z,5.08
2018-02-11T11:00:58.161Z,5.13
2018-02-11T11:01:58.156Z,5.20
2018-02-11T11:02:58.153Z,5.18
2018-02-11T11:03:58.148Z,5.29
2018-02-11T11:04:58.144Z,5.29
2018-02-11T11:05:58.140Z,5.25
2018-02-11T11:06:58.135Z,5.26
2018-02-11T11:07:58.130Z,5.28
2018-02-11T11:08:58.126Z,5.33
2018-02-11T11:09:58.123Z,5.43
2018-02-11T11:10:58.119Z,5.41
2018-02-11T11:11:58.114Z,5.47
2018-02-11T11:12:58.109Z,5.44
2018-02-11T11:13:58.107Z,5.44
2018-02-11T11:14:58.101Z,5.40
2018-02-11T11:15:58.101Z,5.37
2018-02-11T11:16:58.094Z,5.38
2018-02-11T11:17:58.089Z,5.44
2018-02-11T11:18:58.084Z,5.47
2018-02-11T11:19:58.081Z,5.47
2018-02-11T11:20:58.105Z,5.47
2018-02-11T11:21:58.073Z,5.58
2018-02-11T11:22:58.068Z,5.43
2018-02-11T11:23:58.064Z,5.36
2018-02-11T11:24:58.058Z,5.22
2018-02-11T11:25:58.056Z,5.18
2018-02-11T11:26:58.051Z,5.10
2018-02-11T11:27:58.046Z,5.08
2018-02-11T11:28:58.041Z,5.12
2018-02-11T11:29:58.042Z,5.02
2018-02-11T11:30:58.033Z,5.02
2018-02-11T11:31:58.029Z,4.95
2018-02-11T11:32:58.024Z,4.89
2018-02-11T11:33:58.021Z,4.90
2018-02-11T11:34:58.014Z,4.90
2018-02-11T11:35:58.011Z,4.87
2018-02-11T11:36:58.006Z,4.84
2018-02-11T11:37:58.003Z,5.04
2018-02-11T11:38:58.004Z,5.20
2018-02-11T11:39:57.994Z,5.38
2018-02-11T11:40:57.989Z,5.54
2018-02-11T11:41:57.986Z,5.72
2018-02-11T11:42:57.980Z,5.87
2018-02-11T11:43:57.974Z,5.92
2018-02-11T11:44:57.972Z,5.91
2018-02-11T11:45:57.967Z,5.91
2018-02-11T11:46:57.968Z,5.97
2018-02-11T11:47:57.958Z,6.01
2018-02-11T11:48:57.957Z,5.84
2018-02-11T11:49:57.952Z,5.73
2018-02-11T11:50:57.947Z,5.62
2018-02-11T11:51:57.942Z,5.72
2018-02-11T11:52:57.938Z,5.76
2018-02-11T11:53:57.934Z,5.88
2018-02-11T11:54:57.930Z,5.83
2018-02-11T11:55:57.928Z,5.90
2018-02-11T11:56:57.922Z,5.95
2018-02-11T11:57:57.919Z,5.91
2018-02-11T11:58:57.914Z,5.98
2018-02-11T11:59:57.909Z,5.92
2018-02-11T12:00:57.905Z,5.95
2018-02-11T12:01:57.901Z,6.09
2018-02-11T12:02:57.897Z,6.10
2018-02-11T12:03:57.894Z,6.06
2018-02-11T12:04:57.889Z,6.16
2018-02-11T12:05:57.886Z,6.17
2018-02-11T12:06:57.882Z,6.10
2018-02-11T12:07:57.878Z,5.99
2018-02-11T12:08:57.873Z,6.20
2018-02-11T12:09:57.869Z,6.15
2018-02-11T12:10:57.866Z,5.91
2018-02-11T12:11:57.867Z,5.90
2018-02-11T12:12:57.859Z,5.83
2018-02-11T12:13:57.855Z,5.70
2018-02-11T12:14:57.849Z,5.58
2018-02-11T12:15:57.845Z,5.44
2018-02-11T12:16:57.843Z,5.40
2018-02-11T12:17:57.838Z,5.31
2018-02-11T12:18:57.834Z,5.31
2018-02-11T12:19:57.829Z,5.26
2018-02-11T12:20:57.825Z,5.31
2018-02-11T12:21:57.822Z,5.33
2018-02-11T12:22:57.815Z,5.28
2018-02-11T12:23:57.811Z,5.23
2018-02-11T12:24:57.806Z,5.29
2018-02-11T12:25:57.804Z,5.33
2018-02-11T12:26:57.797Z,5.36
2018-02-11T12:27:57.793Z,5.56
2018-02-11T12:28:57.789Z,5.62
2018-02-11T12:29:57.785Z,5.58
2018-02-11T12:30:57.779Z,5.73
2018-02-11T12:31:57.776Z,5.73
2018-02-11T12:32:57.776Z,5.67
2018-02-11T12:33:57.772Z,5.62
2018-02-11T12:34:57.762Z,5.61
2018-02-11T12:35:57.758Z,5.72
2018-02-11T12:36:57.753Z,5.77
2018-02-11T12:37:57.748Z,5.80
2018-02-11T12:38:57.746Z,5.77
2018-02-11T12:39:57.741Z,5.76
2018-02-11T12:40:57.739Z,5.77
2018-02-11T12:41:57.736Z,5.79
2018-02-11T12:42:57.727Z,5.90
2018-02-11T12:43:57.724Z,5.74
2018-02-11T12:44:57.720Z,5.77
2018-02-11T12:45:57.715Z,5.77
2018-02-11T12:46:57.712Z,5.77
2018-02-11T12:47:57.707Z,5.81
2018-02-11T12:48:57.704Z,5.92
2018-02-11T12:49:57.701Z,5.88
2018-02-11T12:50:57.696Z,5.80
2018-02-11T12:51:57.691Z,5.76
2018-02-11T12:52:57.687Z,5.65
2018-02-11T12:53:57.683Z,5.52
2018-02-11T12:54:57.679Z,5.51
2018-02-11T12:55:57.676Z,5.49
2018-02-11T12:56:57.672Z,5.43
2018-02-11T12:57:57.667Z,5.54
2018-02-11T12:58:57.663Z,5.38
2018-02-11T12:59:57.658Z,5.51
2018-02-11T13:00:57.654Z,5.46
2018-02-11T13:01:57.651Z,5.44
2018-02-11T13:02:57.646Z,5.51
2018-02-11T13:03:57.641Z,5.52
2018-02-11T13:04:57.638Z,5.56
2018-02-11T13:05:57.634Z,5.56
2018-02-11T13:06:57.630Z,5.49
2018-02-11T13:07:57.678Z,5.38
2018-02-11T13:08:57.621Z,5.41
2018-02-11T13:09:57.617Z,5.36
2018-02-11T13:10:57.612Z,5.29
2018-02-11T13:11:57.610Z,5.33
2018-02-11T13:12:57.603Z,5.33
2018-02-11T13:13:57.601Z,5.33
2018-02-11T13:14:57.595Z,5.40
2018-02-11T13:15:57.591Z,5.44